sensor_id;sensor_type;location;lat;lon;timestamp;P1;durP1;ratioP1;P2;durP2;ratioP2
25169;SDS011;13129;48.012;10.352;2022-12-10T08:27:45;57.67;;;35.28;;
25169;SDS011;13129;48.012;10.352;2022-12-10T08:30:11;69.35;;;38.35;;
25169;SDS011;13129;48.012;10.352;2022-12-10T08:32:38;70.50;;;38.95;;
25169;SDS011;13129;48.012;10.352;2022-12-10T08:35:04;65.38;;;36.00;;
25169;SDS011;13129;48.012;10.352;2022-12-10T08:37:30;58.40;;;35.47;;
25169;SDS011;13129;48.012;10.352;2022-12-10T08:39:56;50.83;;;32.35;;
25169;SDS011;13129;48.012;10.352;2022-12-10T08:42:22;47.50;;;30.70;;
25169;SDS011;13129;48.012;10.352;2022-12-10T08:44:48;48.70;;;30.33;;
25169;SDS011;13129;48.012;10.352;2022-12-10T08:47:15;48.92;;;29.52;;
25169;SDS011;13129;48.012;10.352;2022-12-10T08:49:42;48.03;;;29.88;;
25169;SDS011;13129;48.012;10.352;2022-12-10T08:52:08;48.88;;;31.13;;
25169;SDS011;13129;48.012;10.352;2022-12-10T08:54:33;47.42;;;29.08;;
25169;SDS011;13129;48.012;10.352;2022-12-10T08:56:59;46.05;;;28.08;;
25169;SDS011;13129;48.012;10.352;2022-12-10T08:59:25;48.03;;;29.10;;
25169;SDS011;13129;48.012;10.352;2022-12-10T09:01:52;46.13;;;29.20;;
25169;SDS011;13129;48.012;10.352;2022-12-10T09:04:17;47.45;;;27.02;;
25169;SDS011;13129;48.012;10.352;2022-12-10T09:06:43;42.75;;;27.33;;
25169;SDS011;13129;48.012;10.352;2022-12-10T09:09:09;47.05;;;28.95;;
25169;SDS011;13129;48.012;10.352;2022-12-10T09:11:35;39.97;;;24.90;;
25169;SDS011;13129;48.012;10.352;2022-12-10T09:14:01;43.05;;;27.83;;
25169;SDS011;13129;48.012;10.352;2022-12-10T09:16:31;44.17;;;27.73;;
25169;SDS011;13129;48.012;10.352;2022-12-10T09:19:02;39.08;;;26.15;;
25169;SDS011;13129;48.012;10.352;2022-12-10T09:21:28;42.60;;;26.35;;
25169;SDS011;13129;48.012;10.352;2022-12-10T09:23:55;39.50;;;27.05;;
25169;SDS011;13129;48.012;10.352;2022-12-10T09:26:21;40.45;;;26.33;;
25169;SDS011;13129;48.012;10.352;2022-12-10T09:28:47;39.88;;;25.25;;
25169;SDS011;13129;48.012;10.352;2022-12-10T09:31:14;39.35;;;26.52;;
25169;SDS011;13129;48.012;10.352;2022-12-10T09:33:41;37.75;;;24.67;;
25169;SDS011;13129;48.012;10.352;2022-12-10T09:36:08;39.63;;;25.67;;
25169;SDS011;13129;48.012;10.352;2022-12-10T09:38:36;38.63;;;25.63;;
25169;SDS011;13129;48.012;10.352;2022-12-10T09:46:50;44.85;;;29.13;;
25169;SDS011;13129;48.012;10.352;2022-12-10T09:49:12;40.25;;;26.95;;
25169;SDS011;13129;48.012;10.352;2022-12-10T09:51:47;40.95;;;26.00;;
25169;SDS011;13129;48.012;10.352;2022-12-10T09:56:56;38.78;;;26.38;;
25169;SDS011;13129;48.012;10.352;2022-12-10T09:59:24;42.72;;;26.63;;
25169;SDS011;13129;48.012;10.352;2022-12-10T10:02:04;39.53;;;26.63;;
25169;SDS011;13129;48.012;10.352;2022-12-10T10:04:48;41.92;;;27.20;;
25169;SDS011;13129;48.012;10.352;2022-12-10T10:07:24;37.92;;;25.73;;
25169;SDS011;13129;48.012;10.352;2022-12-10T10:09:55;38.78;;;26.17;;
25169;SDS011;13129;48.012;10.352;2022-12-10T10:12:26;42.75;;;26.35;;
25169;SDS011;13129;48.012;10.352;2022-12-10T10:14:53;41.58;;;26.10;;
25169;SDS011;13129;48.012;10.352;2022-12-10T10:17:20;39.88;;;25.80;;
25169;SDS011;13129;48.012;10.352;2022-12-10T10:19:52;43.13;;;27.85;;
25169;SDS011;13129;48.012;10.352;2022-12-10T10:22:18;39.10;;;26.33;;
25169;SDS011;13129;48.012;10.352;2022-12-10T10:24:44;38.40;;;26.02;;
25169;SDS011;13129;48.012;10.352;2022-12-10T10:29:38;38.63;;;26.20;;
25169;SDS011;13129;48.012;10.352;2022-12-10T10:32:21;38.13;;;24.67;;
25169;SDS011;13129;48.012;10.352;2022-12-10T10:34:56;35.95;;;25.02;;
25169;SDS011;13129;48.012;10.352;2022-12-10T10:37:28;36.05;;;24.70;;
25169;SDS011;13129;48.012;10.352;2022-12-10T10:40:05;34.63;;;22.45;;
25169;SDS011;13129;48.012;10.352;2022-12-10T10:42:39;33.53;;;23.10;;
25169;SDS011;13129;48.012;10.352;2022-12-10T10:45:30;42.60;;;27.13;;
25169;SDS011;13129;48.012;10.352;2022-12-10T10:48:08;36.35;;;24.52;;
25169;SDS011;13129;48.012;10.352;2022-12-10T10:50:50;31.33;;;22.48;;
25169;SDS011;13129;48.012;10.352;2022-12-10T10:53:26;32.55;;;22.55;;
25169;SDS011;13129;48.012;10.352;2022-12-10T10:55:55;28.35;;;20.63;;
25169;SDS011;13129;48.012;10.352;2022-12-10T10:58:24;32.38;;;21.08;;
25169;SDS011;13129;48.012;10.352;2022-12-10T11:00:55;38.47;;;26.90;;
25169;SDS011;13129;48.012;10.352;2022-12-10T11:03:24;27.45;;;19.33;;
25169;SDS011;13129;48.012;10.352;2022-12-10T11:05:51;26.65;;;18.55;;
25169;SDS011;13129;48.012;10.352;2022-12-10T11:08:18;24.67;;;17.67;;
25169;SDS011;13129;48.012;10.352;2022-12-10T11:10:48;23.48;;;17.55;;
25169;SDS011;13129;48.012;10.352;2022-12-10T11:13:20;30.95;;;20.52;;
25169;SDS011;13129;48.012;10.352;2022-12-10T11:49:19;23.35;;;15.23;;
25169;SDS011;13129;48.012;10.352;2022-12-10T11:52:02;21.08;;;14.27;;
25169;SDS011;13129;48.012;10.352;2022-12-10T12:12:41;14.93;;;10.82;;
25169;SDS011;13129;48.012;10.352;2022-12-10T12:15:35;25.25;;;16.75;;
25169;SDS011;13129;48.012;10.352;2022-12-10T12:21:13;18.13;;;14.63;;
25169;SDS011;13129;48.012;10.352;2022-12-10T12:23:43;26.17;;;17.23;;
25169;SDS011;13129;48.012;10.352;2022-12-10T12:31:21;22.58;;;16.13;;
25169;SDS011;13129;48.012;10.352;2022-12-10T12:36:45;21.83;;;16.13;;
25169;SDS011;13129;48.012;10.352;2022-12-10T12:42:02;24.27;;;17.35;;
25169;SDS011;13129;48.012;10.352;2022-12-10T12:45:01;19.73;;;15.02;;
25169;SDS011;13129;48.012;10.352;2022-12-10T12:47:45;24.10;;;16.60;;
25169;SDS011;13129;48.012;10.352;2022-12-10T12:53:09;21.08;;;16.08;;
25169;SDS011;13129;48.012;10.352;2022-12-10T13:01:19;24.42;;;17.98;;
25169;SDS011;13129;48.012;10.352;2022-12-10T13:03:54;24.33;;;17.13;;
25169;SDS011;13129;48.012;10.352;2022-12-10T13:06:22;26.15;;;18.85;;
25169;SDS011;13129;48.012;10.352;2022-12-10T13:11:34;29.00;;;18.83;;
25169;SDS011;13129;48.012;10.352;2022-12-10T13:27:48;33.03;;;24.80;;
25169;SDS011;13129;48.012;10.352;2022-12-10T13:30:00;29.92;;;21.13;;
25169;SDS011;13129;48.012;10.352;2022-12-10T13:32:46;26.75;;;18.48;;
25169;SDS011;13129;48.012;10.352;2022-12-10T13:35:22;26.13;;;19.95;;
25169;SDS011;13129;48.012;10.352;2022-12-10T13:46:22;22.02;;;15.70;;
25169;SDS011;13129;48.012;10.352;2022-12-10T13:48:59;21.13;;;14.43;;
25169;SDS011;13129;48.012;10.352;2022-12-10T14:06:56;24.65;;;16.30;;
25169;SDS011;13129;48.012;10.352;2022-12-10T14:09:27;24.88;;;18.42;;
25169;SDS011;13129;48.012;10.352;2022-12-10T14:14:36;26.10;;;19.55;;
25169;SDS011;13129;48.012;10.352;2022-12-10T14:17:09;27.35;;;19.02;;
25169;SDS011;13129;48.012;10.352;2022-12-10T14:19:41;27.98;;;18.70;;
25169;SDS011;13129;48.012;10.352;2022-12-10T14:22:14;29.65;;;20.25;;
25169;SDS011;13129;48.012;10.352;2022-12-10T14:25:01;24.42;;;17.65;;
25169;SDS011;13129;48.012;10.352;2022-12-10T14:27:31;25.25;;;17.35;;
25169;SDS011;13129;48.012;10.352;2022-12-10T14:30:04;27.33;;;19.00;;
25169;SDS011;13129;48.012;10.352;2022-12-10T14:32:54;23.60;;;17.17;;
25169;SDS011;13129;48.012;10.352;2022-12-10T14:35:23;25.20;;;17.55;;
25169;SDS011;13129;48.012;10.352;2022-12-10T14:37:51;24.50;;;16.30;;
25169;SDS011;13129;48.012;10.352;2022-12-10T14:40:19;25.77;;;17.83;;
25169;SDS011;13129;48.012;10.352;2022-12-10T14:42:50;29.02;;;18.92;;
25169;SDS011;13129;48.012;10.352;2022-12-10T14:45:20;25.42;;;16.75;;
25169;SDS011;13129;48.012;10.352;2022-12-10T14:47:46;26.10;;;18.00;;
25169;SDS011;13129;48.012;10.352;2022-12-10T14:50:14;23.30;;;16.52;;
25169;SDS011;13129;48.012;10.352;2022-12-10T14:52:43;27.27;;;19.25;;
25169;SDS011;13129;48.012;10.352;2022-12-10T14:55:14;26.40;;;17.45;;
25169;SDS011;13129;48.012;10.352;2022-12-10T14:57:42;25.17;;;17.88;;
25169;SDS011;13129;48.012;10.352;2022-12-10T15:03:02;26.95;;;18.38;;
25169;SDS011;13129;48.012;10.352;2022-12-10T15:05:33;22.58;;;15.85;;
25169;SDS011;13129;48.012;10.352;2022-12-10T15:08:14;22.15;;;15.60;;
25169;SDS011;13129;48.012;10.352;2022-12-10T15:13:19;21.63;;;14.98;;
25169;SDS011;13129;48.012;10.352;2022-12-10T15:15:58;21.20;;;14.90;;
25169;SDS011;13129;48.012;10.352;2022-12-10T15:18:36;19.73;;;13.73;;
25169;SDS011;13129;48.012;10.352;2022-12-10T15:21:04;17.55;;;13.18;;
25169;SDS011;13129;48.012;10.352;2022-12-10T15:23:38;18.27;;;12.15;;
25169;SDS011;13129;48.012;10.352;2022-12-10T15:28:50;18.15;;;13.20;;
25169;SDS011;13129;48.012;10.352;2022-12-10T15:42:06;15.63;;;11.43;;
25169;SDS011;13129;48.012;10.352;2022-12-10T15:44:37;17.05;;;12.43;;
25169;SDS011;13129;48.012;10.352;2022-12-10T15:49:39;17.25;;;12.15;;
25169;SDS011;13129;48.012;10.352;2022-12-10T15:52:06;13.90;;;11.07;;
25169;SDS011;13129;48.012;10.352;2022-12-10T15:54:37;17.15;;;12.68;;
25169;SDS011;13129;48.012;10.352;2022-12-10T15:59:41;15.68;;;10.60;;
25169;SDS011;13129;48.012;10.352;2022-12-10T16:02:31;14.50;;;11.15;;
25169;SDS011;13129;48.012;10.352;2022-12-10T16:05:13;14.45;;;11.50;;
25169;SDS011;13129;48.012;10.352;2022-12-10T16:07:41;14.40;;;11.38;;
25169;SDS011;13129;48.012;10.352;2022-12-10T16:10:11;13.75;;;10.40;;
25169;SDS011;13129;48.012;10.352;2022-12-10T16:12:39;12.93;;;10.18;;
25169;SDS011;13129;48.012;10.352;2022-12-10T16:15:07;13.82;;;10.25;;
25169;SDS011;13129;48.012;10.352;2022-12-10T16:17:39;13.77;;;9.75;;
25169;SDS011;13129;48.012;10.352;2022-12-10T16:22:51;16.75;;;11.43;;
25169;SDS011;13129;48.012;10.352;2022-12-10T16:27:48;15.82;;;10.93;;
25169;SDS011;13129;48.012;10.352;2022-12-10T16:30:24;20.55;;;13.70;;
25169;SDS011;13129;48.012;10.352;2022-12-10T16:32:53;19.05;;;14.80;;
25169;SDS011;13129;48.012;10.352;2022-12-10T16:35:20;17.58;;;12.88;;
25169;SDS011;13129;48.012;10.352;2022-12-10T16:37:46;19.15;;;13.88;;
25169;SDS011;13129;48.012;10.352;2022-12-10T16:40:19;17.02;;;12.80;;
25169;SDS011;13129;48.012;10.352;2022-12-10T16:42:48;21.52;;;15.70;;
25169;SDS011;13129;48.012;10.352;2022-12-10T16:45:20;20.25;;;15.18;;
25169;SDS011;13129;48.012;10.352;2022-12-10T16:47:46;20.17;;;15.00;;
25169;SDS011;13129;48.012;10.352;2022-12-10T16:50:13;20.63;;;15.23;;
25169;SDS011;13129;48.012;10.352;2022-12-10T16:52:39;18.75;;;14.73;;
25169;SDS011;13129;48.012;10.352;2022-12-10T16:55:06;20.73;;;15.80;;
25169;SDS011;13129;48.012;10.352;2022-12-10T17:00:06;21.30;;;16.48;;
25169;SDS011;13129;48.012;10.352;2022-12-10T17:02:32;20.13;;;14.52;;
25169;SDS011;13129;48.012;10.352;2022-12-10T17:04:58;24.02;;;19.48;;
25169;SDS011;13129;48.012;10.352;2022-12-10T17:07:24;19.98;;;15.63;;
25169;SDS011;13129;48.012;10.352;2022-12-10T17:09:54;19.95;;;13.27;;
25169;SDS011;13129;48.012;10.352;2022-12-10T17:12:19;18.13;;;12.70;;
25169;SDS011;13129;48.012;10.352;2022-12-10T17:14:45;19.67;;;13.75;;
25169;SDS011;13129;48.012;10.352;2022-12-10T17:17:11;17.25;;;12.90;;
25169;SDS011;13129;48.012;10.352;2022-12-10T17:19:38;21.50;;;16.70;;
25169;SDS011;13129;48.012;10.352;2022-12-10T17:22:07;20.70;;;14.93;;
25169;SDS011;13129;48.012;10.352;2022-12-10T17:24:34;20.88;;;15.43;;
25169;SDS011;13129;48.012;10.352;2022-12-10T17:27:11;24.15;;;15.13;;
25169;SDS011;13129;48.012;10.352;2022-12-10T17:29:40;22.80;;;14.75;;
25169;SDS011;13129;48.012;10.352;2022-12-10T17:32:12;22.42;;;15.25;;
25169;SDS011;13129;48.012;10.352;2022-12-10T17:34:38;26.95;;;16.98;;
25169;SDS011;13129;48.012;10.352;2022-12-10T17:37:11;24.95;;;17.77;;
